Irvington, AL (36544)

5:24 PM CST on February 27, 2017 (GMT -0600)
Driftwood | | Change Station

Elev 89 ft 30.45 °N, 88.22 °W | Updated 12 seconds ago

Mostly Cloudy
Mostly Cloudy
66.4 °F
Feels Like 66.4 °F
N
6.0
Wind Variable Wind from NE
Gusts 9.8 mph

Today
High -- | Low -- °F
--% Chance of Precip.
Yesterday
High -- | Low -- °F
Precip. -- in
Pressure 30.20 in
Visibility 7.0 miles
Clouds Few 2500 ft
Few 10000 ft
Dew Point 51 °F
Humidity 58%
Rainfall 0.00 in
Snow Depth Not available.
6:21 AM 5:50 PM
New Moon, 2% visible
SPECI KMOB 272305Z 07011KT 7SM FEW025CB FEW100 16/13 A3020 RMK AO2 LTG DSNT W-NE CB DSNT W-NE T01560128
Pressure 30.20 in
Visibility 7.0 miles
Clouds Few 2500 ft
Few 10000 ft
Dew Point 51 °F
Humidity 58%
Rainfall 0.00 in
Snow Depth Not available.
6:21 AM 5:50 PM
New Moon, 2% visible
SPECI KMOB 272305Z 07011KT 7SM FEW025CB FEW100 16/13 A3020 RMK AO2 LTG DSNT W-NE CB DSNT W-NE T01560128

Get Your Daily Forecast Email!

Thanks for signing up!

Be on the lookout for a verification email in your inbox.

You'll start receiving the daily forecast at 8 AM.

×

10-Day Weather Forecast

Almanac

Astronomy

Feb. 27, 2017 Rise Set
Actual Time
Civil Twilight
Nautical Twilight
Astronomical Twilight
Moon
Length of Visible Light
Length of Day
Tomorrow will be .
, % of the Moon is Illuminated

Today's Extremes

State Highs State Lows

Community

WunderPhotos

Upload Photos

1,962,540 photos uploaded!

WunderBlog® & News

Nearby

Air Quality

  Air Quality AQ Index Pollutant
Not available.

Snow Depth

Station Depth Elevation

Earthquake Activity

City Distance Mag. Time & Date
Minimum magnitude displayed is 2.5.

Coastal Water Temperatures

Place Temperature

Stations

Nearby Weather Stations

Station Location Temp. Windchill Dew Point Humidity Wind Precip. Elev Updated Type
                   

Watches & Warnings

There are currently no watches in effect.